Карточка аэропорта UNWW

Внимание!
Информация на этой странице в стадии наполнения.
Если вы не увидели какой-то информации, или заметили неточность - пожалуйста сообщите нам!
Спасибо!
Команда RU-STAFF
Название аэропортаСпиченково
Название аэропорта (англ.)Spichenkovo
Превышение1023 ft. (311.8 m.)
Координаты53°48.714', 86°52.704'
Высота перехода800m
Эшелон переходаFL050
Коды ответчика5270-5277
Зона ОрВДНовосибирск РПИ (UNNT)
Данные METARUNWW 271300Z 22004MPS 9999 FEW015 BKN026CB 11/10 Q1010 R19/290150 NOSIG RMK QFE731
Проноз погоды (TAF)UNWW 271100Z 2712/2812 24006G15MPS 8000 -SHRA BKN020CB TX09/2712Z TN04/2718Z TEMPO 2712/2716 19005G11MPS BKN011CB BECMG 2716/2718 03003G08MPS TEMPO 2720/2804 1500 BR BKN003 BKN011CB BECMG 2800/2804 34006G13MPS TEMPO 2809/2812 29003G08MPS BKN011CB
NOTAMshow/hide NOTAM
AWOS   TABLE

Информация о ВПП

ВПП Длина ВПП (м.) Покрытие Курс ВПП Частота ILS
012679Цементобетон14 
192679Цементобетон194111.1

Диспетчерские позиции

Позывной Наименование органа УВД Частота
UNWW_TWRНовокузнецк-Старт121.2
UNWW_APPНовокузнецк-Подход118.6



Спутниковое изображение